createdAt,value
2019-02-28T00:02:31.452Z,39.23
2019-02-28T00:05:05.845Z,43.77
2019-02-28T00:07:36.201Z,46.40
2019-02-28T00:10:09.747Z,44.70
2019-02-28T00:12:41.232Z,46.67
2019-02-28T00:15:16.357Z,42.10
2019-02-28T00:17:47.891Z,47.23
2019-02-28T00:20:19.535Z,53.23
2019-02-28T00:22:51.139Z,56.57
2019-02-28T00:25:22.611Z,53.30
2019-02-28T00:27:54.074Z,55.53
2019-02-28T00:30:25.544Z,47.13
2019-02-28T00:32:59.341Z,50.97
2019-02-28T00:35:30.155Z,52.37
2019-02-28T00:38:01.661Z,50.53
2019-02-28T00:40:33.183Z,45.20
2019-02-28T00:43:04.639Z,53.10
2019-02-28T00:45:37.270Z,51.27
2019-02-28T00:48:08.936Z,55.10
2019-02-28T00:50:40.608Z,57.37
2019-02-28T00:53:12.113Z,66.87
2019-02-28T00:55:45.932Z,55.87
2019-02-28T00:58:16.753Z,56.97
2019-02-28T01:00:48.239Z,53.33
2019-02-28T01:03:19.787Z,59.90
2019-02-28T01:05:51.402Z,58.13
2019-02-28T01:08:23.085Z,55.20
2019-02-28T01:10:54.573Z,60.63
2019-02-28T01:13:28.070Z,68.93
2019-02-28T01:16:00.617Z,57.07
2019-02-28T01:18:34.452Z,64.67
2019-02-28T01:21:05.237Z,59.63
2019-02-28T01:23:36.687Z,62.40
2019-02-28T01:26:08.161Z,64.67
2019-02-28T01:28:39.609Z,70.83
2019-02-28T01:31:20.868Z,66.87
2019-02-28T01:33:52.357Z,67.73
2019-02-28T01:36:23.867Z,63.03
2019-02-28T01:38:57.977Z,61.23
2019-02-28T01:41:28.920Z,72.50
2019-02-28T01:44:02.758Z,66.53
2019-02-28T01:46:34.434Z,66.00
2019-02-28T01:49:05.877Z,67.83
2019-02-28T01:51:37.354Z,67.57
2019-02-28T01:54:08.817Z,70.70
2019-02-28T01:56:40.380Z,68.90
2019-02-28T01:59:11.855Z,72.93
2019-02-28T02:01:43.346Z,72.30
2019-02-28T02:04:14.773Z,72.10
2019-02-28T02:06:46.304Z,70.90
2019-02-28T02:09:17.752Z,70.03
2019-02-28T02:11:49.253Z,65.27
2019-02-28T02:14:20.687Z,75.80
2019-02-28T02:16:52.134Z,81.17
2019-02-28T02:19:24.661Z,71.43
2019-02-28T02:21:56.134Z,63.27
2019-02-28T02:24:27.865Z,79.40
2019-02-28T02:27:00.321Z,69.20
2019-02-28T02:29:32.448Z,73.20
2019-02-28T02:32:05.484Z,68.60
2019-02-28T02:34:37.017Z,75.37
2019-02-28T02:37:12.255Z,80.67
2019-02-28T02:39:43.735Z,77.17
2019-02-28T02:42:15.196Z,75.77
2019-02-28T02:44:46.672Z,73.17
2019-02-28T02:47:21.309Z,81.80
2019-02-28T02:49:57.463Z,75.70
2019-02-28T02:52:30.134Z,76.53
2019-02-28T02:55:01.825Z,82.10
2019-02-28T02:57:33.334Z,85.20
2019-02-28T03:00:06.102Z,89.90
2019-02-28T03:02:37.994Z,76.73
2019-02-28T03:05:09.955Z,81.83
2019-02-28T03:07:41.478Z,73.60
2019-02-28T03:10:17.651Z,72.00
2019-02-28T03:12:47.905Z,85.93
2019-02-28T03:15:24.914Z,75.37
2019-02-28T03:17:52.537Z,90.50
2019-02-28T03:20:24.035Z,89.33
2019-02-28T03:22:55.540Z,79.77
2019-02-28T03:25:28.341Z,75.77
2019-02-28T03:28:01.164Z,87.50
2019-02-28T03:30:33.778Z,84.43
2019-02-28T03:33:05.586Z,84.70
2019-02-28T03:35:43.265Z,89.50
2019-02-28T03:38:11.677Z,83.33
2019-02-28T03:40:44.640Z,91.60
2019-02-28T03:43:16.182Z,80.10
2019-02-28T03:45:50.201Z,87.17
2019-02-28T03:48:21.759Z,85.70
2019-02-28T03:50:55.402Z,87.73
2019-02-28T03:53:26.451Z,86.37
2019-02-28T03:55:57.933Z,97.27
2019-02-28T03:58:29.403Z,80.20
2019-02-28T04:01:00.874Z,93.60
2019-02-28T04:03:33.745Z,89.43
2019-02-28T04:06:05.670Z,102.07
2019-02-28T04:08:37.158Z,91.00
2019-02-28T04:11:08.619Z,101.00
2019-02-28T04:13:40.081Z,97.43
2019-02-28T04:16:11.604Z,93.87
2019-02-28T04:18:46.167Z,95.97
2019-02-28T04:21:16.238Z,94.67
2019-02-28T04:23:47.779Z,81.93
2019-02-28T04:26:19.281Z,92.17
2019-02-28T04:28:54.719Z,94.50
2019-02-28T04:31:24.202Z,98.63
2019-02-28T04:33:55.756Z,88.77
2019-02-28T04:36:27.358Z,101.90
2019-02-28T04:38:58.900Z,104.53
2019-02-28T04:41:32.979Z,101.63
2019-02-28T04:44:04.186Z,101.47
2019-02-28T04:46:35.672Z,103.20
2019-02-28T04:49:07.140Z,103.00
2019-02-28T04:51:40.139Z,102.93
2019-02-28T04:54:11.852Z,102.50
2019-02-28T04:56:45.625Z,115.23
2019-02-28T04:59:16.598Z,100.43
2019-02-28T05:01:48.141Z,92.00
2019-02-28T05:04:19.726Z,110.40
2019-02-28T05:06:52.141Z,108.37
2019-02-28T05:09:24.349Z,119.30
2019-02-28T05:11:55.780Z,112.80
2019-02-28T05:14:27.316Z,104.43
2019-02-28T05:16:58.810Z,104.00
2019-02-28T05:19:32.329Z,96.40
2019-02-28T05:22:04.966Z,88.73
2019-02-28T05:24:39.522Z,112.43
2019-02-28T05:27:09.751Z,107.10
2019-02-28T05:29:43.924Z,111.10
2019-02-28T05:32:14.413Z,122.87
2019-02-28T05:34:47.471Z,114.17
2019-02-28T05:37:19.101Z,110.13
2019-02-28T05:39:50.615Z,102.70
2019-02-28T05:42:23.372Z,93.53
2019-02-28T05:44:55.319Z,112.20
2019-02-28T05:47:29.438Z,124.40
2019-02-28T05:49:59.928Z,113.80
2019-02-28T05:52:33.731Z,111.90
2019-02-28T05:55:05.087Z,117.30
2019-02-28T05:57:39.430Z,115.10
2019-02-28T06:00:10.849Z,114.13
2019-02-28T06:02:42.382Z,134.23
2019-02-28T06:05:16.201Z,128.93
2019-02-28T06:07:47.663Z,104.37
2019-02-28T06:10:23.525Z,131.07
2019-02-28T06:12:53.410Z,134.77
2019-02-28T06:15:24.905Z,128.70
2019-02-28T06:17:56.387Z,136.40
2019-02-28T06:20:27.865Z,137.93
2019-02-28T06:22:59.333Z,148.90
2019-02-28T06:25:30.898Z,141.47
2019-02-28T06:28:04.109Z,134.77
2019-02-28T06:30:35.570Z,151.43
2019-02-28T06:33:08.071Z,145.00
2019-02-28T06:35:39.531Z,129.70
2019-02-28T06:38:11.016Z,151.20
2019-02-28T06:40:42.618Z,121.73
2019-02-28T06:43:14.241Z,107.60
2019-02-28T06:45:45.811Z,132.80
2019-02-28T06:48:17.396Z,144.83
2019-02-28T06:50:48.993Z,136.30
2019-02-28T06:53:20.471Z,135.63
2019-02-28T06:55:51.997Z,161.83
2019-02-28T06:58:23.454Z,138.07
2019-02-28T07:00:54.969Z,132.80
2019-02-28T07:03:26.506Z,151.23
2019-02-28T07:06:01.194Z,154.57
2019-02-28T07:08:31.257Z,151.80
2019-02-28T07:11:02.883Z,167.20
2019-02-28T07:13:39.018Z,160.10
2019-02-28T07:16:07.563Z,164.27
2019-02-28T07:18:39.074Z,156.77
2019-02-28T07:21:10.542Z,160.03
2019-02-28T07:23:42.091Z,125.60
2019-02-28T07:26:13.633Z,172.03
2019-02-28T07:28:45.097Z,158.60
2019-02-28T07:31:16.649Z,158.00
2019-02-28T07:33:51.369Z,166.30
2019-02-28T07:36:44.842Z,169.60
2019-02-28T07:39:15.240Z,159.97
2019-02-28T07:41:46.700Z,187.63
2019-02-28T07:44:22.248Z,172.87
2019-02-28T07:46:52.493Z,175.10
2019-02-28T07:49:25.954Z,137.27
2019-02-28T07:51:57.957Z,189.57
2019-02-28T07:54:31.273Z,194.60
2019-02-28T07:57:03.158Z,152.93
2019-02-28T07:59:40.675Z,184.77
2019-02-28T08:02:08.167Z,196.70
2019-02-28T08:04:39.710Z,203.37
2019-02-28T08:07:14.884Z,202.87
2019-02-28T08:09:45.078Z,180.47
2019-02-28T08:12:27.463Z,173.63
2019-02-28T08:15:00.407Z,169.17
2019-02-28T08:17:31.959Z,162.30
2019-02-28T08:20:04.768Z,177.47
2019-02-28T08:22:36.380Z,168.73
2019-02-28T08:25:19.782Z,192.70
2019-02-28T08:27:59.235Z,183.60
2019-02-28T08:30:27.280Z,184.13
2019-02-28T08:32:58.745Z,151.13
2019-02-28T08:35:34.065Z,169.57
2019-02-28T08:38:03.633Z,174.83
2019-02-28T08:40:35.266Z,175.73
2019-02-28T08:43:07.113Z,168.23
2019-02-28T08:45:38.767Z,177.13
2019-02-28T08:48:10.263Z,168.53
2019-02-28T08:50:47.738Z,176.10
2019-02-28T08:53:19.725Z,168.93
2019-02-28T08:55:51.220Z,163.27
2019-02-28T08:58:22.714Z,161.47
2019-02-28T09:00:54.144Z,164.33
2019-02-28T09:03:27.448Z,159.03
2019-02-28T09:06:00.942Z,176.23
2019-02-28T09:08:32.234Z,150.30
2019-02-28T09:11:03.699Z,128.37
2019-02-28T09:13:35.164Z,137.50
2019-02-28T09:16:07.134Z,141.17
2019-02-28T09:18:38.775Z,135.80
2019-02-28T09:21:10.548Z,141.80
2019-02-28T09:23:42.321Z,130.97
2019-02-28T09:26:13.964Z,128.27
2019-02-28T09:28:51.390Z,130.47
2019-02-28T09:31:22.858Z,135.70
2019-02-28T09:33:55.405Z,133.80
2019-02-28T09:36:27.535Z,128.70
2019-02-28T09:38:59.716Z,123.17
2019-02-28T09:41:31.170Z,104.37
2019-02-28T09:44:02.646Z,116.23
2019-02-28T09:46:34.144Z,118.90
2019-02-28T09:49:05.865Z,103.20
2019-02-28T09:51:37.346Z,74.63
2019-02-28T09:54:08.834Z,111.57
2019-02-28T09:56:41.120Z,79.70
2019-02-28T09:59:13.618Z,99.87
2019-02-28T10:01:45.131Z,92.33
2019-02-28T10:04:16.694Z,72.70
2019-02-28T10:06:48.531Z,77.73
2019-02-28T10:09:21.588Z,72.17
2019-02-28T10:11:53.295Z,72.40
2019-02-28T10:14:25.710Z,71.47
2019-02-28T10:16:58.176Z,67.70
2019-02-28T10:19:30.721Z,60.03
2019-02-28T10:22:06.145Z,61.33
2019-02-28T10:24:37.740Z,65.23
2019-02-28T10:27:09.170Z,64.40
2019-02-28T10:29:41.912Z,55.60
2019-02-28T10:32:14.282Z,61.83
2019-02-28T10:34:45.832Z,54.23
2019-02-28T10:37:19.311Z,67.93
2019-02-28T10:39:50.678Z,56.07
2019-02-28T10:42:22.768Z,55.80
2019-02-28T10:44:55.841Z,63.23
2019-02-28T10:47:29.605Z,61.50
2019-02-28T10:50:01.479Z,62.77
2019-02-28T10:52:33.223Z,83.03
2019-02-28T10:55:05.442Z,64.83
2019-02-28T10:57:37.267Z,63.23
2019-02-28T11:00:15.779Z,58.67
2019-02-28T11:02:50.442Z,57.23
2019-02-28T11:05:29.206Z,53.57
2019-02-28T11:08:03.563Z,62.77
2019-02-28T11:10:40.016Z,69.63
2019-02-28T11:13:14.403Z,56.50
2019-02-28T11:15:48.335Z,48.43
2019-02-28T11:18:19.477Z,58.50
2019-02-28T11:20:54.144Z,65.10
2019-02-28T11:23:25.649Z,70.83
2019-02-28T11:25:57.626Z,61.43
2019-02-28T11:28:29.310Z,54.53
2019-02-28T11:31:01.527Z,54.70
2019-02-28T11:33:33.285Z,56.70
2019-02-28T11:36:07.833Z,53.83
2019-02-28T11:38:39.407Z,49.13
2019-02-28T11:41:11.106Z,63.60
2019-02-28T11:43:42.732Z,52.00
2019-02-28T11:46:20.279Z,56.90
2019-02-28T11:48:53.961Z,52.10
2019-02-28T11:51:25.126Z,46.47
2019-02-28T11:53:56.664Z,58.07
2019-02-28T11:56:28.905Z,61.10
2019-02-28T11:59:01.033Z,47.17
2019-02-28T12:01:32.792Z,67.57
2019-02-28T12:04:04.401Z,46.37
2019-02-28T12:06:36.036Z,68.57
2019-02-28T12:09:10.462Z,46.40
2019-02-28T12:11:42.219Z,43.97
2019-02-28T12:14:13.987Z,49.60
2019-02-28T12:16:45.542Z,47.77
2019-02-28T12:19:17.187Z,56.93
2019-02-28T12:21:48.741Z,47.50
2019-02-28T12:24:20.483Z,57.83
2019-02-28T12:26:52.713Z,49.50
2019-02-28T12:29:25.045Z,52.83
2019-02-28T12:31:56.591Z,57.80
2019-02-28T12:34:29.823Z,56.70
2019-02-28T12:37:01.247Z,48.93
2019-02-28T12:39:33.353Z,44.80
2019-02-28T12:42:05.959Z,40.83
2019-02-28T12:44:37.425Z,40.17
2019-02-28T12:47:09.073Z,42.87
2019-02-28T12:49:40.659Z,37.70
2019-02-28T12:52:14.510Z,50.77
2019-02-28T12:54:45.683Z,37.57
2019-02-28T12:57:19.327Z,44.87
2019-02-28T12:59:50.584Z,42.30
2019-02-28T13:02:22.135Z,47.03
2019-02-28T13:04:53.589Z,40.03
2019-02-28T13:07:25.131Z,40.80
2019-02-28T13:09:56.610Z,32.40
2019-02-28T13:12:28.456Z,33.27
2019-02-28T13:15:00.454Z,34.93
2019-02-28T13:17:32.963Z,35.73
2019-02-28T13:20:06.834Z,42.57
2019-02-28T13:22:38.433Z,46.00
2019-02-28T13:25:11.839Z,33.93
2019-02-28T13:27:45.203Z,43.83
2019-02-28T13:30:23.005Z,40.57
2019-02-28T13:32:56.350Z,44.57
2019-02-28T13:35:30.652Z,44.37
2019-02-28T13:38:02.163Z,42.30
2019-02-28T13:40:33.595Z,30.03
2019-02-28T13:43:05.187Z,38.17
2019-02-28T13:45:36.625Z,36.47
2019-02-28T13:48:11.130Z,39.67
2019-02-28T13:50:42.576Z,39.77
2019-02-28T13:53:18.192Z,42.47
2019-02-28T13:55:47.153Z,45.00
2019-02-28T13:58:21.636Z,47.77
2019-02-28T14:00:51.839Z,40.83
2019-02-28T14:03:23.449Z,35.70
2019-02-28T14:05:55.015Z,36.80
2019-02-28T14:08:26.655Z,36.63
2019-02-28T14:10:58.436Z,41.40
2019-02-28T14:13:34.741Z,40.70
2019-02-28T14:16:06.646Z,51.70
2019-02-28T14:18:38.179Z,45.00
2019-02-28T14:21:09.724Z,37.90
2019-02-28T14:23:41.355Z,37.50
2019-02-28T14:26:14.035Z,38.63
2019-02-28T14:28:47.117Z,34.50
2019-02-28T14:31:18.582Z,44.80
2019-02-28T14:33:51.505Z,44.73
2019-02-28T14:36:23.407Z,44.37
2019-02-28T14:38:55.182Z,30.90
2019-02-28T14:41:28.055Z,36.67
2019-02-28T14:44:00.346Z,32.43
2019-02-28T14:46:42.153Z,32.37
2019-02-28T14:49:13.732Z,36.67
2019-02-28T14:51:45.282Z,33.83
2019-02-28T14:54:16.753Z,38.30
2019-02-28T14:56:48.241Z,35.47
2019-02-28T14:59:19.753Z,37.93
2019-02-28T15:01:53.044Z,34.73
2019-02-28T15:04:24.665Z,34.30
2019-02-28T15:06:56.785Z,33.00
2019-02-28T15:09:28.382Z,32.33
2019-02-28T15:12:00.020Z,33.47
2019-02-28T15:14:31.508Z,35.13
2019-02-28T15:17:06.836Z,47.30
2019-02-28T15:19:38.467Z,40.97
2019-02-28T15:22:14.273Z,41.80
2019-02-28T15:24:46.250Z,33.27
2019-02-28T15:27:17.754Z,39.60
2019-02-28T15:29:49.242Z,39.40
2019-02-28T15:32:20.904Z,34.50
2019-02-28T15:34:52.376Z,32.17
2019-02-28T15:37:23.856Z,34.00
2019-02-28T15:39:55.389Z,29.30
2019-02-28T15:42:26.845Z,33.17
2019-02-28T15:45:17.515Z,23.00
2019-02-28T15:47:49.125Z,34.33
2019-02-28T15:50:20.745Z,34.80
2019-02-28T15:52:52.499Z,41.17
2019-02-28T15:55:24.848Z,39.17
2019-02-28T15:57:56.364Z,42.70
2019-02-28T16:00:31.589Z,48.10
2019-02-28T16:03:16.799Z,36.30
2019-02-28T16:05:47.960Z,39.43
2019-02-28T16:08:19.724Z,45.57
2019-02-28T16:10:53.608Z,39.13
2019-02-28T16:13:25.807Z,44.90
2019-02-28T16:16:04.215Z,37.27
2019-02-28T16:18:35.824Z,36.47
2019-02-28T16:21:08.229Z,46.83
2019-02-28T16:23:39.699Z,36.87
2019-02-28T16:26:11.244Z,38.20
2019-02-28T16:28:43.453Z,37.70
2019-02-28T16:31:15.264Z,41.07
2019-02-28T16:33:47.016Z,23.33
2019-02-28T16:36:18.796Z,40.67
2019-02-28T16:38:50.598Z,44.20
2019-02-28T16:41:22.387Z,50.77
2019-02-28T16:43:57.171Z,38.37
2019-02-28T16:46:30.210Z,42.97
2019-02-28T16:49:02.710Z,48.93
2019-02-28T16:51:34.227Z,45.50
2019-02-28T16:54:05.688Z,44.80
2019-02-28T16:56:37.720Z,41.20
2019-02-28T16:59:10.149Z,40.73
2019-02-28T17:01:41.613Z,42.73
2019-02-28T17:04:13.495Z,40.27
2019-02-28T17:06:46.350Z,35.40
2019-02-28T17:09:42.802Z,42.13
2019-02-28T17:12:29.411Z,44.57
2019-02-28T17:15:01.092Z,32.40
2019-02-28T17:17:37.547Z,39.17
2019-02-28T17:20:09.499Z,34.90
2019-02-28T17:22:41.167Z,32.57
2019-02-28T17:25:14.110Z,33.17
2019-02-28T17:27:51.912Z,33.80
2019-02-28T17:30:45.888Z,37.80
2019-02-28T17:33:21.497Z,26.60
2019-02-28T17:35:54.436Z,35.10
2019-02-28T17:38:27.019Z,24.40
2019-02-28T17:40:58.795Z,39.37
2019-02-28T17:43:31.969Z,34.80
2019-02-28T17:46:12.971Z,33.67
2019-02-28T17:49:29.261Z,31.03
2019-02-28T17:52:12.513Z,30.63
2019-02-28T17:55:47.727Z,34.23
2019-02-28T17:59:10.419Z,35.70
2019-02-28T18:02:22.866Z,36.57
2019-02-28T18:05:59.596Z,29.40
2019-02-28T18:09:26.818Z,35.07
2019-02-28T18:13:04.190Z,31.50
2019-02-28T18:16:21.374Z,26.90
2019-02-28T18:20:13.039Z,33.30
2019-02-28T18:23:34.810Z,32.97
2019-02-28T18:27:21.680Z,39.27
2019-02-28T18:30:42.630Z,25.13
2019-02-28T18:33:15.026Z,42.33
2019-02-28T18:35:46.825Z,30.40
2019-02-28T18:38:19.209Z,32.90
2019-02-28T18:40:50.786Z,34.03
2019-02-28T18:43:23.945Z,26.67
2019-02-28T18:45:57.747Z,32.97
2019-02-28T18:48:29.335Z,21.97
2019-02-28T18:51:01.903Z,29.40
2019-02-28T18:53:33.450Z,38.43
2019-02-28T18:56:05.018Z,34.43
2019-02-28T18:58:36.617Z,34.87
2019-02-28T19:01:08.149Z,33.63
2019-02-28T19:03:41.497Z,36.43
2019-02-28T19:06:14.517Z,31.97
2019-02-28T19:08:46.196Z,33.07
2019-02-28T19:11:18.914Z,30.30
2019-02-28T19:13:50.494Z,35.30
2019-02-28T19:16:22.148Z,41.17
2019-02-28T19:18:53.673Z,34.83
2019-02-28T19:21:25.316Z,35.07
2019-02-28T19:23:56.926Z,42.37
2019-02-28T19:26:33.759Z,43.67
2019-02-28T19:29:05.260Z,30.50
2019-02-28T19:31:36.759Z,43.20
2019-02-28T19:34:08.370Z,31.70
2019-02-28T19:36:40.985Z,38.47
2019-02-28T19:39:12.573Z,38.67
2019-02-28T19:41:44.115Z,36.53
2019-02-28T19:44:15.760Z,45.90
2019-02-28T19:46:47.456Z,37.67
2019-02-28T19:49:19.151Z,32.90
2019-02-28T19:51:50.922Z,33.07
2019-02-28T19:54:22.707Z,31.10
2019-02-28T19:56:54.906Z,39.40
2019-02-28T19:59:26.879Z,31.80
2019-02-28T20:01:58.414Z,33.80
2019-02-28T20:04:30.027Z,32.87
2019-02-28T20:07:01.655Z,30.97
2019-02-28T20:09:34.412Z,32.63
2019-02-28T20:12:06.057Z,39.93
2019-02-28T20:14:37.738Z,37.60
2019-02-28T20:17:09.501Z,38.70
2019-02-28T20:19:41.010Z,32.10
2019-02-28T20:22:12.732Z,41.00
2019-02-28T20:24:44.407Z,39.00
2019-02-28T20:27:16.159Z,37.57
2019-02-28T20:29:54.871Z,30.67
2019-02-28T20:32:21.349Z,31.73
2019-02-28T20:34:53.258Z,37.97
2019-02-28T20:37:24.773Z,31.33
2019-02-28T20:39:58.041Z,34.43
2019-02-28T20:42:31.152Z,38.93
2019-02-28T20:45:07.656Z,35.60
2019-02-28T20:47:39.421Z,33.10
2019-02-28T20:50:16.467Z,37.70
2019-02-28T20:52:48.114Z,40.80
2019-02-28T20:55:19.726Z,35.83
2019-02-28T20:57:51.611Z,40.87
2019-02-28T21:00:27.153Z,32.00
2019-02-28T21:02:58.795Z,33.20
2019-02-28T21:05:30.527Z,43.07
2019-02-28T21:08:03.529Z,44.17
2019-02-28T21:10:36.991Z,31.17
2019-02-28T21:13:08.791Z,37.13
2019-02-28T21:15:40.512Z,30.87
2019-02-28T21:18:12.354Z,37.47
2019-02-28T21:20:44.147Z,30.63
2019-02-28T21:23:16.024Z,32.47
2019-02-28T21:25:47.611Z,30.53
2019-02-28T21:28:19.250Z,37.63
2019-02-28T21:30:50.785Z,33.00
2019-02-28T21:33:22.392Z,37.83
2019-02-28T21:35:54.980Z,34.93
2019-02-28T21:38:26.562Z,39.33
2019-02-28T21:40:58.227Z,35.50
2019-02-28T21:43:30.059Z,38.57
2019-02-28T21:46:01.690Z,27.37
2019-02-28T21:48:33.433Z,27.00
2019-02-28T21:51:05.130Z,37.07
2019-02-28T21:53:36.906Z,43.57
2019-02-28T21:56:08.464Z,33.73
2019-02-28T21:58:40.008Z,34.57
2019-02-28T22:01:11.645Z,27.20
2019-02-28T22:03:43.534Z,23.37
2019-02-28T22:06:15.154Z,33.17
2019-02-28T22:08:46.916Z,30.07
2019-02-28T22:11:18.670Z,24.97
2019-02-28T22:13:50.416Z,26.00
2019-02-28T22:16:23.342Z,29.73
2019-02-28T22:18:55.302Z,30.53
2019-02-28T22:21:26.894Z,22.70
2019-02-28T22:23:58.559Z,25.90
2019-02-28T22:26:30.016Z,26.60
2019-02-28T22:29:01.837Z,31.80
2019-02-28T22:31:47.315Z,44.30
2019-02-28T22:34:32.780Z,42.77
2019-02-28T22:37:04.368Z,30.60
2019-02-28T22:39:36.006Z,32.57
2019-02-28T22:42:08.579Z,25.10
2019-02-28T22:44:40.091Z,27.33
2019-02-28T22:47:11.552Z,23.73
2019-02-28T22:49:44.122Z,25.43
2019-02-28T22:52:15.653Z,30.77
2019-02-28T22:54:48.805Z,29.30
2019-02-28T22:57:20.347Z,28.23
2019-02-28T22:59:51.953Z,30.50
2019-02-28T23:02:24.538Z,27.80
2019-02-28T23:04:56.261Z,30.40
2019-02-28T23:07:27.856Z,31.40
2019-02-28T23:09:59.401Z,33.63
2019-02-28T23:12:30.919Z,37.43
2019-02-28T23:15:02.451Z,34.20
2019-02-28T23:17:35.212Z,28.57
2019-02-28T23:20:06.992Z,27.57
2019-02-28T23:22:38.495Z,38.73
2019-02-28T23:25:10.064Z,34.07
2019-02-28T23:27:41.597Z,38.80
2019-02-28T23:31:09.181Z,36.33
2019-02-28T23:33:40.822Z,33.83
2019-02-28T23:36:12.387Z,27.10
2019-02-28T23:38:43.879Z,35.53
2019-02-28T23:41:34.466Z,31.27
2019-02-28T23:44:06.098Z,31.53
2019-02-28T23:46:37.645Z,36.07
2019-02-28T23:49:09.807Z,40.90
2019-02-28T23:51:44.254Z,32.97
2019-02-28T23:54:15.685Z,33.20
2019-02-28T23:56:47.166Z,36.83
2019-02-28T23:59:18.667Z,34.07
